sensor_id;sensor_type;location;lat;lon;timestamp;P1;durP1;ratioP1;P2;durP2;ratioP2
49340;SDS011;35209;51.050;13.678;2022-11-15T00:04:45;79.20;;;48.83;;
49340;SDS011;35209;51.050;13.678;2022-11-15T00:10:05;76.07;;;49.10;;
49340;SDS011;35209;51.050;13.678;2022-11-15T00:15:25;77.90;;;49.25;;
49340;SDS011;35209;51.050;13.678;2022-11-15T00:20:46;79.22;;;50.30;;
49340;SDS011;35209;51.050;13.678;2022-11-15T00:26:15;88.97;;;55.35;;
49340;SDS011;35209;51.050;13.678;2022-11-15T00:31:36;82.95;;;53.42;;
49340;SDS011;35209;51.050;13.678;2022-11-15T00:36:56;84.65;;;53.72;;
49340;SDS011;35209;51.050;13.678;2022-11-15T00:42:16;93.78;;;57.08;;
49340;SDS011;35209;51.050;13.678;2022-11-15T00:47:36;94.78;;;60.15;;
49340;SDS011;35209;51.050;13.678;2022-11-15T00:52:57;90.70;;;56.65;;
49340;SDS011;35209;51.050;13.678;2022-11-15T00:58:17;87.43;;;56.50;;
49340;SDS011;35209;51.050;13.678;2022-11-15T01:03:38;79.32;;;52.55;;
49340;SDS011;35209;51.050;13.678;2022-11-15T01:08:59;92.18;;;56.05;;
49340;SDS011;35209;51.050;13.678;2022-11-15T01:14:19;74.22;;;49.90;;
49340;SDS011;35209;51.050;13.678;2022-11-15T01:19:44;75.25;;;49.00;;
49340;SDS011;35209;51.050;13.678;2022-11-15T01:25:04;68.70;;;47.08;;
49340;SDS011;35209;51.050;13.678;2022-11-15T01:30:25;77.40;;;47.78;;
49340;SDS011;35209;51.050;13.678;2022-11-15T01:35:45;66.93;;;45.35;;
49340;SDS011;35209;51.050;13.678;2022-11-15T01:41:05;64.55;;;43.17;;
49340;SDS011;35209;51.050;13.678;2022-11-15T01:46:29;64.90;;;42.97;;
49340;SDS011;35209;51.050;13.678;2022-11-15T01:51:53;67.05;;;43.78;;
49340;SDS011;35209;51.050;13.678;2022-11-15T01:57:14;67.97;;;43.63;;
49340;SDS011;35209;51.050;13.678;2022-11-15T02:02:34;83.80;;;49.90;;
49340;SDS011;35209;51.050;13.678;2022-11-15T02:07:57;77.25;;;48.40;;
49340;SDS011;35209;51.050;13.678;2022-11-15T02:13:17;89.03;;;52.33;;
49340;SDS011;35209;51.050;13.678;2022-11-15T02:18:38;89.38;;;53.15;;
49340;SDS011;35209;51.050;13.678;2022-11-15T02:40:58;108.75;;;57.70;;
49340;SDS011;35209;51.050;13.678;2022-11-15T02:52:14;114.43;;;60.30;;
49340;SDS011;35209;51.050;13.678;2022-11-15T03:08:51;122.95;;;63.63;;
49340;SDS011;35209;51.050;13.678;2022-11-15T03:19:58;136.90;;;67.28;;
49340;SDS011;35209;51.050;13.678;2022-11-15T03:25:22;125.90;;;64.13;;
49340;SDS011;35209;51.050;13.678;2022-11-15T03:30:45;114.57;;;61.28;;
49340;SDS011;35209;51.050;13.678;2022-11-15T03:36:08;119.32;;;62.95;;
49340;SDS011;35209;51.050;13.678;2022-11-15T03:41:48;117.13;;;58.80;;
49340;SDS011;35209;51.050;13.678;2022-11-15T03:47:17;115.15;;;59.63;;
49340;SDS011;35209;51.050;13.678;2022-11-15T03:52:43;117.47;;;59.90;;
49340;SDS011;35209;51.050;13.678;2022-11-15T03:58:06;116.15;;;59.45;;
49340;SDS011;35209;51.050;13.678;2022-11-15T04:03:26;112.10;;;58.28;;
49340;SDS011;35209;51.050;13.678;2022-11-15T04:08:46;110.00;;;56.33;;
49340;SDS011;35209;51.050;13.678;2022-11-15T04:14:07;103.55;;;55.45;;
49340;SDS011;35209;51.050;13.678;2022-11-15T04:19:27;114.90;;;57.10;;
49340;SDS011;35209;51.050;13.678;2022-11-15T04:25:08;105.97;;;54.80;;
49340;SDS011;35209;51.050;13.678;2022-11-15T04:30:28;102.93;;;53.90;;
49340;SDS011;35209;51.050;13.678;2022-11-15T04:35:48;99.22;;;53.42;;
49340;SDS011;35209;51.050;13.678;2022-11-15T04:41:27;97.07;;;53.03;;
49340;SDS011;35209;51.050;13.678;2022-11-15T04:46:48;97.07;;;51.10;;
49340;SDS011;35209;51.050;13.678;2022-11-15T04:52:09;102.18;;;52.28;;
49340;SDS011;35209;51.050;13.678;2022-11-15T04:57:29;95.40;;;51.10;;
49340;SDS011;35209;51.050;13.678;2022-11-15T05:02:49;96.07;;;50.17;;
49340;SDS011;35209;51.050;13.678;2022-11-15T05:08:29;103.70;;;51.05;;
49340;SDS011;35209;51.050;13.678;2022-11-15T05:13:49;91.07;;;49.10;;
49340;SDS011;35209;51.050;13.678;2022-11-15T05:19:09;90.72;;;48.55;;
49340;SDS011;35209;51.050;13.678;2022-11-15T05:24:30;95.95;;;49.30;;
49340;SDS011;35209;51.050;13.678;2022-11-15T05:29:50;81.07;;;46.15;;
49340;SDS011;35209;51.050;13.678;2022-11-15T05:35:17;87.50;;;46.88;;
49340;SDS011;35209;51.050;13.678;2022-11-15T05:40:49;81.65;;;44.17;;
49340;SDS011;35209;51.050;13.678;2022-11-15T05:46:09;81.25;;;44.13;;
49340;SDS011;35209;51.050;13.678;2022-11-15T05:51:30;80.70;;;45.08;;
49340;SDS011;35209;51.050;13.678;2022-11-15T05:56:50;81.97;;;44.15;;
49340;SDS011;35209;51.050;13.678;2022-11-15T06:02:11;87.25;;;45.97;;
49340;SDS011;35209;51.050;13.678;2022-11-15T06:07:31;88.30;;;49.17;;
49340;SDS011;35209;51.050;13.678;2022-11-15T06:13:02;83.38;;;47.58;;
49340;SDS011;35209;51.050;13.678;2022-11-15T06:18:24;83.32;;;44.80;;
49340;SDS011;35209;51.050;13.678;2022-11-15T06:23:45;83.68;;;46.05;;
49340;SDS011;35209;51.050;13.678;2022-11-15T06:29:06;75.40;;;43.67;;
49340;SDS011;35209;51.050;13.678;2022-11-15T06:34:26;82.57;;;45.92;;
49340;SDS011;35209;51.050;13.678;2022-11-15T06:39:46;81.53;;;45.40;;
49340;SDS011;35209;51.050;13.678;2022-11-15T06:45:06;77.35;;;46.92;;
49340;SDS011;35209;51.050;13.678;2022-11-15T06:50:27;87.60;;;46.83;;
49340;SDS011;35209;51.050;13.678;2022-11-15T06:55:48;80.25;;;46.67;;
49340;SDS011;35209;51.050;13.678;2022-11-15T07:01:14;79.38;;;45.00;;
49340;SDS011;35209;51.050;13.678;2022-11-15T07:06:34;77.70;;;46.28;;
49340;SDS011;35209;51.050;13.678;2022-11-15T07:11:54;87.40;;;48.17;;
49340;SDS011;35209;51.050;13.678;2022-11-15T07:17:15;80.25;;;45.63;;
49340;SDS011;35209;51.050;13.678;2022-11-15T07:22:35;83.38;;;45.03;;
49340;SDS011;35209;51.050;13.678;2022-11-15T07:27:58;76.60;;;44.50;;
49340;SDS011;35209;51.050;13.678;2022-11-15T07:33:20;74.82;;;43.55;;
49340;SDS011;35209;51.050;13.678;2022-11-15T07:38:40;73.72;;;42.92;;
49340;SDS011;35209;51.050;13.678;2022-11-15T07:44:02;68.60;;;40.25;;
49340;SDS011;35209;51.050;13.678;2022-11-15T07:49:22;65.85;;;41.97;;
49340;SDS011;35209;51.050;13.678;2022-11-15T07:54:42;68.95;;;40.30;;
49340;SDS011;35209;51.050;13.678;2022-11-15T08:00:03;69.45;;;40.80;;
49340;SDS011;35209;51.050;13.678;2022-11-15T08:05:25;62.88;;;37.15;;
49340;SDS011;35209;51.050;13.678;2022-11-15T08:10:45;61.42;;;37.83;;
49340;SDS011;35209;51.050;13.678;2022-11-15T08:16:06;62.30;;;38.67;;
49340;SDS011;35209;51.050;13.678;2022-11-15T08:21:26;59.88;;;37.70;;
49340;SDS011;35209;51.050;13.678;2022-11-15T08:26:46;56.97;;;37.42;;
49340;SDS011;35209;51.050;13.678;2022-11-15T08:32:07;61.25;;;37.10;;
49340;SDS011;35209;51.050;13.678;2022-11-15T08:37:27;49.08;;;34.67;;
49340;SDS011;35209;51.050;13.678;2022-11-15T08:42:47;52.15;;;36.70;;
49340;SDS011;35209;51.050;13.678;2022-11-15T08:48:07;52.15;;;36.08;;
49340;SDS011;35209;51.050;13.678;2022-11-15T08:53:28;48.42;;;34.97;;
49340;SDS011;35209;51.050;13.678;2022-11-15T08:58:48;45.13;;;32.20;;
49340;SDS011;35209;51.050;13.678;2022-11-15T09:04:08;37.80;;;30.30;;
49340;SDS011;35209;51.050;13.678;2022-11-15T09:09:28;36.20;;;29.50;;
49340;SDS011;35209;51.050;13.678;2022-11-15T09:14:49;35.17;;;28.83;;
49340;SDS011;35209;51.050;13.678;2022-11-15T09:20:09;42.53;;;28.52;;
49340;SDS011;35209;51.050;13.678;2022-11-15T09:25:30;32.35;;;27.83;;
49340;SDS011;35209;51.050;13.678;2022-11-15T09:30:51;32.30;;;27.88;;
49340;SDS011;35209;51.050;13.678;2022-11-15T09:36:15;36.47;;;28.83;;
49340;SDS011;35209;51.050;13.678;2022-11-15T09:53:13;30.13;;;26.20;;
49340;SDS011;35209;51.050;13.678;2022-11-15T09:59:02;30.33;;;27.23;;
49340;SDS011;35209;51.050;13.678;2022-11-15T10:04:33;35.13;;;28.77;;
49340;SDS011;35209;51.050;13.678;2022-11-15T10:14:43;32.65;;;28.40;;
49340;SDS011;35209;51.050;13.678;2022-11-15T10:20:10;30.35;;;26.77;;
49340;SDS011;35209;51.050;13.678;2022-11-15T10:25:31;31.43;;;27.67;;
49340;SDS011;35209;51.050;13.678;2022-11-15T10:30:35;32.60;;;27.75;;
49340;SDS011;35209;51.050;13.678;2022-11-15T10:35:39;34.08;;;26.85;;
49340;SDS011;35209;51.050;13.678;2022-11-15T10:40:41;28.48;;;25.55;;
49340;SDS011;35209;51.050;13.678;2022-11-15T10:45:46;25.75;;;22.60;;
49340;SDS011;35209;51.050;13.678;2022-11-15T10:50:48;24.30;;;22.08;;
49340;SDS011;35209;51.050;13.678;2022-11-15T10:55:53;22.50;;;20.80;;
49340;SDS011;35209;51.050;13.678;2022-11-15T11:01:14;22.40;;;20.60;;
49340;SDS011;35209;51.050;13.678;2022-11-15T11:06:18;22.55;;;20.55;;
49340;SDS011;35209;51.050;13.678;2022-11-15T11:11:20;22.48;;;20.58;;
49340;SDS011;35209;51.050;13.678;2022-11-15T11:16:42;21.02;;;19.35;;
49340;SDS011;35209;51.050;13.678;2022-11-15T11:38:10;22.73;;;20.67;;
49340;SDS011;35209;51.050;13.678;2022-11-15T11:53:50;23.10;;;20.98;;
49340;SDS011;35209;51.050;13.678;2022-11-15T11:59:02;22.23;;;20.52;;
49340;SDS011;35209;51.050;13.678;2022-11-15T12:15:01;24.63;;;22.42;;
49340;SDS011;35209;51.050;13.678;2022-11-15T12:20:27;24.55;;;22.13;;
49340;SDS011;35209;51.050;13.678;2022-11-15T12:25:52;22.08;;;20.15;;
49340;SDS011;35209;51.050;13.678;2022-11-15T12:36:47;35.63;;;22.73;;
49340;SDS011;35209;51.050;13.678;2022-11-15T13:02:17;22.15;;;20.33;;
49340;SDS011;35209;51.050;13.678;2022-11-15T13:17:46;24.13;;;21.58;;
49340;SDS011;35209;51.050;13.678;2022-11-15T13:33:35;23.52;;;21.33;;
49340;SDS011;35209;51.050;13.678;2022-11-15T13:38:39;23.17;;;21.05;;
49340;SDS011;35209;51.050;13.678;2022-11-15T13:43:44;22.25;;;20.48;;
49340;SDS011;35209;51.050;13.678;2022-11-15T13:48:46;24.05;;;22.05;;
49340;SDS011;35209;51.050;13.678;2022-11-15T13:59:01;22.73;;;20.85;;
49340;SDS011;35209;51.050;13.678;2022-11-15T14:04:25;23.20;;;21.20;;
49340;SDS011;35209;51.050;13.678;2022-11-15T14:14:44;25.55;;;23.08;;
49340;SDS011;35209;51.050;13.678;2022-11-15T14:19:47;24.45;;;22.05;;
49340;SDS011;35209;51.050;13.678;2022-11-15T14:30:15;25.30;;;23.02;;
49340;SDS011;35209;51.050;13.678;2022-11-15T14:35:19;24.90;;;22.50;;
49340;SDS011;35209;51.050;13.678;2022-11-15T14:40:23;26.23;;;23.25;;
49340;SDS011;35209;51.050;13.678;2022-11-15T14:45:26;25.77;;;23.45;;
49340;SDS011;35209;51.050;13.678;2022-11-15T14:50:28;24.75;;;22.35;;
49340;SDS011;35209;51.050;13.678;2022-11-15T14:55:34;25.33;;;22.80;;
49340;SDS011;35209;51.050;13.678;2022-11-15T15:00:38;24.60;;;22.20;;
49340;SDS011;35209;51.050;13.678;2022-11-15T15:05:41;26.10;;;23.42;;
49340;SDS011;35209;51.050;13.678;2022-11-15T15:10:45;26.45;;;23.90;;
49340;SDS011;35209;51.050;13.678;2022-11-15T15:15:47;29.00;;;23.42;;
49340;SDS011;35209;51.050;13.678;2022-11-15T15:20:54;27.23;;;24.50;;
49340;SDS011;35209;51.050;13.678;2022-11-15T15:25:58;27.02;;;23.88;;
49340;SDS011;35209;51.050;13.678;2022-11-15T15:31:00;26.63;;;23.75;;
49340;SDS011;35209;51.050;13.678;2022-11-15T15:36:02;26.67;;;23.95;;
49340;SDS011;35209;51.050;13.678;2022-11-15T15:41:08;25.40;;;22.48;;
49340;SDS011;35209;51.050;13.678;2022-11-15T15:46:12;25.92;;;23.23;;
49340;SDS011;35209;51.050;13.678;2022-11-15T15:51:16;27.90;;;25.23;;
49340;SDS011;35209;51.050;13.678;2022-11-15T15:56:20;35.28;;;28.63;;
49340;SDS011;35209;51.050;13.678;2022-11-15T16:01:22;27.83;;;24.83;;
49340;SDS011;35209;51.050;13.678;2022-11-15T16:06:39;27.10;;;24.20;;
49340;SDS011;35209;51.050;13.678;2022-11-15T16:11:45;26.70;;;23.92;;
49340;SDS011;35209;51.050;13.678;2022-11-15T16:16:47;26.98;;;24.33;;
49340;SDS011;35209;51.050;13.678;2022-11-15T16:21:49;27.10;;;23.65;;
49340;SDS011;35209;51.050;13.678;2022-11-15T16:26:53;29.25;;;24.60;;
49340;SDS011;35209;51.050;13.678;2022-11-15T16:31:55;29.13;;;24.00;;
49340;SDS011;35209;51.050;13.678;2022-11-15T16:36:57;25.83;;;23.40;;
49340;SDS011;35209;51.050;13.678;2022-11-15T16:41:58;26.45;;;23.83;;
49340;SDS011;35209;51.050;13.678;2022-11-15T16:47:01;28.52;;;24.77;;
49340;SDS011;35209;51.050;13.678;2022-11-15T16:52:02;25.35;;;22.70;;
49340;SDS011;35209;51.050;13.678;2022-11-15T16:57:04;27.45;;;23.25;;
49340;SDS011;35209;51.050;13.678;2022-11-15T17:02:12;29.30;;;25.13;;
49340;SDS011;35209;51.050;13.678;2022-11-15T17:07:15;28.55;;;23.83;;
49340;SDS011;35209;51.050;13.678;2022-11-15T17:12:17;27.10;;;24.48;;
49340;SDS011;35209;51.050;13.678;2022-11-15T17:17:19;27.92;;;23.95;;
49340;SDS011;35209;51.050;13.678;2022-11-15T17:22:22;27.58;;;24.48;;
49340;SDS011;35209;51.050;13.678;2022-11-15T17:27:23;25.85;;;23.27;;
49340;SDS011;35209;51.050;13.678;2022-11-15T17:32:25;26.45;;;23.88;;
49340;SDS011;35209;51.050;13.678;2022-11-15T17:37:27;28.83;;;25.75;;
49340;SDS011;35209;51.050;13.678;2022-11-15T17:42:28;26.70;;;24.02;;
49340;SDS011;35209;51.050;13.678;2022-11-15T17:47:30;28.15;;;25.23;;
49340;SDS011;35209;51.050;13.678;2022-11-15T17:52:32;25.60;;;22.92;;
49340;SDS011;35209;51.050;13.678;2022-11-15T17:57:34;27.02;;;24.17;;
49340;SDS011;35209;51.050;13.678;2022-11-15T18:02:35;29.10;;;24.17;;
49340;SDS011;35209;51.050;13.678;2022-11-15T18:07:38;32.08;;;24.88;;
49340;SDS011;35209;51.050;13.678;2022-11-15T18:12:39;35.53;;;26.15;;
49340;SDS011;35209;51.050;13.678;2022-11-15T18:17:41;31.80;;;25.65;;
49340;SDS011;35209;51.050;13.678;2022-11-15T18:22:43;31.45;;;27.00;;
49340;SDS011;35209;51.050;13.678;2022-11-15T18:27:44;33.25;;;26.55;;
49340;SDS011;35209;51.050;13.678;2022-11-15T18:32:46;29.00;;;24.48;;
49340;SDS011;35209;51.050;13.678;2022-11-15T18:37:48;27.65;;;24.65;;
49340;SDS011;35209;51.050;13.678;2022-11-15T18:42:51;30.60;;;25.45;;
49340;SDS011;35209;51.050;13.678;2022-11-15T18:47:55;29.40;;;24.77;;
49340;SDS011;35209;51.050;13.678;2022-11-15T18:52:57;26.98;;;24.15;;
49340;SDS011;35209;51.050;13.678;2022-11-15T18:58:01;33.22;;;25.58;;
49340;SDS011;35209;51.050;13.678;2022-11-15T19:03:03;26.35;;;23.58;;
49340;SDS011;35209;51.050;13.678;2022-11-15T19:08:04;27.60;;;23.63;;
49340;SDS011;35209;51.050;13.678;2022-11-15T19:13:06;26.83;;;23.75;;
49340;SDS011;35209;51.050;13.678;2022-11-15T19:18:08;27.77;;;24.42;;
49340;SDS011;35209;51.050;13.678;2022-11-15T19:23:09;29.10;;;23.73;;
49340;SDS011;35209;51.050;13.678;2022-11-15T19:28:11;26.45;;;23.65;;
49340;SDS011;35209;51.050;13.678;2022-11-15T19:33:13;33.35;;;24.42;;
49340;SDS011;35209;51.050;13.678;2022-11-15T19:38:15;27.42;;;23.33;;
49340;SDS011;35209;51.050;13.678;2022-11-15T19:43:16;25.92;;;22.88;;
49340;SDS011;35209;51.050;13.678;2022-11-15T19:48:18;25.65;;;23.08;;
49340;SDS011;35209;51.050;13.678;2022-11-15T19:53:21;25.83;;;23.08;;
49340;SDS011;35209;51.050;13.678;2022-11-15T19:58:27;24.95;;;22.48;;
49340;SDS011;35209;51.050;13.678;2022-11-15T20:03:30;29.25;;;23.58;;
49340;SDS011;35209;51.050;13.678;2022-11-15T20:08:33;25.13;;;22.08;;
49340;SDS011;35209;51.050;13.678;2022-11-15T20:13:37;24.83;;;22.38;;
49340;SDS011;35209;51.050;13.678;2022-11-15T20:18:38;23.73;;;21.45;;
49340;SDS011;35209;51.050;13.678;2022-11-15T20:23:40;24.75;;;22.13;;
49340;SDS011;35209;51.050;13.678;2022-11-15T20:28:42;23.48;;;21.15;;
49340;SDS011;35209;51.050;13.678;2022-11-15T20:33:45;22.40;;;20.30;;
49340;SDS011;35209;51.050;13.678;2022-11-15T20:38:46;22.42;;;20.52;;
49340;SDS011;35209;51.050;13.678;2022-11-15T20:43:48;21.73;;;19.70;;
49340;SDS011;35209;51.050;13.678;2022-11-15T20:48:50;21.10;;;19.05;;
49340;SDS011;35209;51.050;13.678;2022-11-15T20:53:51;20.40;;;18.52;;
49340;SDS011;35209;51.050;13.678;2022-11-15T20:58:53;19.17;;;17.48;;
49340;SDS011;35209;51.050;13.678;2022-11-15T21:03:57;20.58;;;18.70;;
49340;SDS011;35209;51.050;13.678;2022-11-15T21:08:59;22.75;;;20.45;;
49340;SDS011;35209;51.050;13.678;2022-11-15T21:14:19;21.35;;;19.55;;
49340;SDS011;35209;51.050;13.678;2022-11-15T21:19:21;23.05;;;19.83;;
49340;SDS011;35209;51.050;13.678;2022-11-15T21:24:32;23.83;;;21.35;;
49340;SDS011;35209;51.050;13.678;2022-11-15T21:29:34;22.10;;;19.85;;
49340;SDS011;35209;51.050;13.678;2022-11-15T21:34:39;22.88;;;20.63;;
49340;SDS011;35209;51.050;13.678;2022-11-15T21:39:41;21.63;;;19.55;;
49340;SDS011;35209;51.050;13.678;2022-11-15T21:44:45;20.50;;;18.80;;
49340;SDS011;35209;51.050;13.678;2022-11-15T21:49:47;20.85;;;19.02;;
49340;SDS011;35209;51.050;13.678;2022-11-15T21:54:49;21.92;;;19.90;;
49340;SDS011;35209;51.050;13.678;2022-11-15T21:59:51;21.10;;;19.10;;
49340;SDS011;35209;51.050;13.678;2022-11-15T22:05:11;22.52;;;20.17;;
49340;SDS011;35209;51.050;13.678;2022-11-15T22:10:12;21.13;;;19.30;;
49340;SDS011;35209;51.050;13.678;2022-11-15T22:15:14;21.55;;;19.40;;
49340;SDS011;35209;51.050;13.678;2022-11-15T22:20:19;20.10;;;18.27;;
49340;SDS011;35209;51.050;13.678;2022-11-15T22:25:41;19.65;;;17.90;;
49340;SDS011;35209;51.050;13.678;2022-11-15T22:30:44;20.88;;;18.77;;
49340;SDS011;35209;51.050;13.678;2022-11-15T22:35:46;19.73;;;17.92;;
49340;SDS011;35209;51.050;13.678;2022-11-15T22:40:48;21.05;;;19.02;;
49340;SDS011;35209;51.050;13.678;2022-11-15T22:50:51;19.27;;;17.67;;
49340;SDS011;35209;51.050;13.678;2022-11-15T22:55:54;19.63;;;17.85;;
49340;SDS011;35209;51.050;13.678;2022-11-15T23:00:58;20.13;;;18.25;;
49340;SDS011;35209;51.050;13.678;2022-11-15T23:06:04;18.70;;;17.10;;
49340;SDS011;35209;51.050;13.678;2022-11-15T23:11:08;19.40;;;17.65;;
49340;SDS011;35209;51.050;13.678;2022-11-15T23:16:29;17.70;;;16.08;;
49340;SDS011;35209;51.050;13.678;2022-11-15T23:21:37;18.20;;;16.58;;
49340;SDS011;35209;51.050;13.678;2022-11-15T23:27:04;17.80;;;16.23;;
49340;SDS011;35209;51.050;13.678;2022-11-15T23:32:07;17.52;;;16.13;;
49340;SDS011;35209;51.050;13.678;2022-11-15T23:37:27;15.68;;;14.55;;
49340;SDS011;35209;51.050;13.678;2022-11-15T23:42:29;17.33;;;15.90;;
49340;SDS011;35209;51.050;13.678;2022-11-15T23:47:31;16.20;;;14.85;;
49340;SDS011;35209;51.050;13.678;2022-11-15T23:52:32;16.90;;;15.48;;
49340;SDS011;35209;51.050;13.678;2022-11-15T23:57:34;16.20;;;14.73;;
